Time;durP1;ratioP1;P1;durP2;ratioP2;P2;SDS_P1;SDS_P2;PMS_P1;PMS_P2;Temp;Humidity;BMP_temperature;BMP_pressure;BME280_temperature;BME280_humidity;BME280_pressure;Samples;Min_cycle;Max_cycle;Signal;HPM_P1;HPM_P2
2021/09/05 00:02:22;;;;;;;40.88;17.98;;;;;;;;;;4939982;28;20043;-79
2021/09/05 00:04:47;;;;;;;43.17;18.25;;;;;;;;;;4946767;28;20034;-79
2021/09/05 00:07:13;;;;;;;44.97;17.77;;;;;;;;;;4930443;28;20050;-78
2021/09/05 00:09:39;;;;;;;32.97;17.00;;;;;;;;;;4947919;28;20031;-79
2021/09/05 00:12:04;;;;;;;44.08;17.63;;;;;;;;;;4949050;28;20050;-80
2021/09/05 00:14:30;;;;;;;38.28;17.58;;;;;;;;;;4950990;28;20027;-79
2021/09/05 00:16:55;;;;;;;43.47;17.50;;;;;;;;;;4951408;28;20413;-79
2021/09/05 00:19:21;;;;;;;38.78;17.98;;;;;;;;;;4940623;28;20027;-80
2021/09/05 00:21:47;;;;;;;39.00;17.67;;;;;;;;;;4943918;28;20460;-78
2021/09/05 00:24:12;;;;;;;37.88;17.67;;;;;;;;;;4931582;29;20036;-79
2021/09/05 00:26:37;;;;;;;38.33;18.75;;;;;;;;;;4946112;28;20038;-79
2021/09/05 00:29:03;;;;;;;34.10;16.48;;;;;;;;;;4922117;28;20061;-79
2021/09/05 00:31:29;;;;;;;43.65;17.98;;;;;;;;;;4950779;28;20099;-79
2021/09/05 00:33:58;;;;;;;45.85;18.25;;;;;;;;;;4952313;28;20043;-79
2021/09/05 00:36:24;;;;;;;35.25;17.13;;;;;;;;;;4923463;29;20027;-79
2021/09/05 00:38:49;;;;;;;42.67;17.48;;;;;;;;;;4942346;28;20051;-79
2021/09/05 00:41:15;;;;;;;44.08;17.70;;;;;;;;;;4947391;28;20038;-80
2021/09/05 00:44:04;;;;;;;45.80;17.85;;;;;;;;;;4950046;28;20040;-79
2021/09/05 00:46:31;;;;;;;38.45;18.38;;;;;;;;;;4947138;28;20042;-79
2021/09/05 00:48:56;;;;;;;39.65;16.45;;;;;;;;;;4943906;28;20130;-79
2021/09/05 00:51:31;;;;;;;35.97;17.15;;;;;;;;;;4953062;28;20138;-79
2021/09/05 00:54:02;;;;;;;35.92;16.02;;;;;;;;;;4951297;28;20066;-79
2021/09/05 00:56:29;;;;;;;42.50;16.50;;;;;;;;;;4915934;29;20039;-79
2021/09/05 00:58:56;;;;;;;39.13;17.58;;;;;;;;;;4939363;28;20627;-79
2021/09/05 01:01:23;;;;;;;35.63;16.83;;;;;;;;;;4943157;28;20039;-80
2021/09/05 01:03:49;;;;;;;36.03;17.27;;;;;;;;;;4944065;28;20031;-80
2021/09/05 01:06:14;;;;;;;36.28;16.77;;;;;;;;;;4934768;28;20097;-79
2021/09/05 01:08:41;;;;;;;37.00;16.23;;;;;;;;;;4945433;28;20568;-80
2021/09/05 01:11:06;;;;;;;39.88;17.13;;;;;;;;;;4951639;28;20092;-80
2021/09/05 01:13:32;;;;;;;36.05;15.90;;;;;;;;;;4941346;28;20489;-80
2021/09/05 01:15:58;;;;;;;33.65;16.67;;;;;;;;;;4942854;28;20123;-80
2021/09/05 01:18:23;;;;;;;45.65;16.83;;;;;;;;;;4942948;28;20035;-79
2021/09/05 01:20:49;;;;;;;35.72;16.58;;;;;;;;;;4913952;29;20046;-79
2021/09/05 01:23:14;;;;;;;44.83;16.08;;;;;;;;;;4949517;28;20051;-80
2021/09/05 01:25:40;;;;;;;33.15;16.10;;;;;;;;;;4949828;28;20038;-79
2021/09/05 01:28:12;;;;;;;33.72;16.13;;;;;;;;;;4952554;28;20023;-80
2021/09/05 01:30:39;;;;;;;40.90;17.45;;;;;;;;;;4945670;28;20030;-79
2021/09/05 01:33:05;;;;;;;38.85;16.83;;;;;;;;;;4942952;28;20661;-80
2021/09/05 01:35:33;;;;;;;40.08;15.68;;;;;;;;;;4948961;28;20035;-79
2021/09/05 01:37:59;;;;;;;37.88;16.50;;;;;;;;;;4944844;28;20031;-79
2021/09/05 01:40:24;;;;;;;41.30;15.57;;;;;;;;;;4931004;28;20038;-79
2021/09/05 01:42:50;;;;;;;37.30;16.35;;;;;;;;;;4954309;28;20505;-80
2021/09/05 01:45:15;;;;;;;35.58;16.20;;;;;;;;;;4948287;28;20028;-79
2021/09/05 01:47:40;;;;;;;41.05;16.48;;;;;;;;;;4949914;28;20055;-80
2021/09/05 01:50:06;;;;;;;38.90;16.42;;;;;;;;;;4952208;28;20042;-80
2021/09/05 01:52:32;;;;;;;33.92;15.75;;;;;;;;;;4952191;28;20118;-79
2021/09/05 01:54:57;;;;;;;40.80;16.17;;;;;;;;;;4935619;28;20505;-79
2021/09/05 01:57:23;;;;;;;34.60;15.73;;;;;;;;;;4950171;28;20033;-79
2021/09/05 01:59:48;;;;;;;29.88;15.65;;;;;;;;;;4952072;28;20031;-80
2021/09/05 02:02:14;;;;;;;33.15;16.02;;;;;;;;;;4955147;28;20520;-79
2021/09/05 02:04:39;;;;;;;33.50;16.23;;;;;;;;;;4958173;28;20381;-80
2021/09/05 02:07:05;;;;;;;32.28;15.43;;;;;;;;;;4958499;28;20035;-80
2021/09/05 02:09:30;;;;;;;40.75;16.73;;;;;;;;;;4939052;29;20066;-80
2021/09/05 02:11:55;;;;;;;40.15;16.55;;;;;;;;;;4923071;29;20525;-80
2021/09/05 02:14:21;;;;;;;46.78;16.58;;;;;;;;;;4950271;28;20083;-80
2021/09/05 02:16:47;;;;;;;36.38;16.40;;;;;;;;;;4956364;28;20046;-80
2021/09/05 02:19:12;;;;;;;33.83;15.73;;;;;;;;;;4954389;28;20030;-80
2021/09/05 02:21:38;;;;;;;34.80;15.65;;;;;;;;;;4951013;28;20082;-82
2021/09/05 02:24:03;;;;;;;34.53;16.33;;;;;;;;;;4954271;28;20043;-81
2021/09/05 02:26:29;;;;;;;33.75;15.43;;;;;;;;;;4953513;28;20134;-79
2021/09/05 02:28:55;;;;;;;34.85;16.08;;;;;;;;;;4950622;28;20039;-79
2021/09/05 02:31:20;;;;;;;34.92;15.05;;;;;;;;;;4954055;28;20026;-80
2021/09/05 02:33:46;;;;;;;38.63;16.08;;;;;;;;;;4952761;28;20027;-83
2021/09/05 02:36:11;;;;;;;35.78;15.02;;;;;;;;;;4938597;29;20126;-80
2021/09/05 02:38:37;;;;;;;34.65;14.63;;;;;;;;;;4947134;28;20745;-80
2021/09/05 02:41:02;;;;;;;34.42;14.32;;;;;;;;;;4950384;28;20053;-79
2021/09/05 02:43:28;;;;;;;33.25;14.40;;;;;;;;;;4944250;28;20086;-80
2021/09/05 02:45:53;;;;;;;32.47;15.07;;;;;;;;;;4957504;28;20031;-80
2021/09/05 02:48:19;;;;;;;35.67;14.93;;;;;;;;;;4947111;28;20043;-80
2021/09/05 02:50:44;;;;;;;42.03;15.07;;;;;;;;;;4930612;29;20540;-79
2021/09/05 02:53:10;;;;;;;31.73;14.15;;;;;;;;;;4955898;28;20015;-80
2021/09/05 02:55:35;;;;;;;34.00;13.77;;;;;;;;;;4942642;28;20036;-80
2021/09/05 02:58:01;;;;;;;35.05;14.38;;;;;;;;;;4944107;28;20046;-80
2021/09/05 03:00:26;;;;;;;37.95;14.32;;;;;;;;;;4950577;28;20511;-80
2021/09/05 03:02:52;;;;;;;40.38;14.35;;;;;;;;;;4950084;28;20742;-80
2021/09/05 03:05:17;;;;;;;31.52;14.75;;;;;;;;;;4946477;28;20539;-80
2021/09/05 03:07:43;;;;;;;33.20;14.38;;;;;;;;;;4948838;28;20062;-80
2021/09/05 03:10:09;;;;;;;37.60;15.48;;;;;;;;;;4945378;28;20646;-79
2021/09/05 03:12:34;;;;;;;35.85;13.65;;;;;;;;;;4946859;28;20031;-80
2021/09/05 03:15:00;;;;;;;45.35;15.13;;;;;;;;;;4952195;28;20304;-80
2021/09/05 03:17:26;;;;;;;36.05;13.98;;;;;;;;;;4945037;28;20565;-79
2021/09/05 03:19:51;;;;;;;27.85;13.75;;;;;;;;;;4943098;28;20035;-79
2021/09/05 03:22:17;;;;;;;33.30;13.60;;;;;;;;;;4947407;28;20129;-80
2021/09/05 03:24:42;;;;;;;33.53;14.25;;;;;;;;;;4936005;28;20500;-80
2021/09/05 03:27:08;;;;;;;34.78;14.32;;;;;;;;;;4945547;28;20023;-79
2021/09/05 03:29:33;;;;;;;34.35;14.25;;;;;;;;;;4947100;28;20056;-80
2021/09/05 03:31:59;;;;;;;35.92;14.38;;;;;;;;;;4952845;28;20035;-80
2021/09/05 03:34:24;;;;;;;30.08;14.23;;;;;;;;;;4941750;28;20097;-80
2021/09/05 03:36:50;;;;;;;33.33;13.93;;;;;;;;;;4929173;29;20043;-80
2021/09/05 03:39:15;;;;;;;27.92;13.90;;;;;;;;;;4933326;28;20118;-80
2021/09/05 03:41:40;;;;;;;24.42;13.43;;;;;;;;;;4945891;28;20020;-79
2021/09/05 03:44:06;;;;;;;32.88;14.70;;;;;;;;;;4950159;28;20523;-80
2021/09/05 03:46:31;;;;;;;35.70;14.90;;;;;;;;;;4940603;28;20055;-80
2021/09/05 03:48:57;;;;;;;31.17;14.02;;;;;;;;;;4947654;28;20035;-80
2021/09/05 03:51:22;;;;;;;36.53;13.93;;;;;;;;;;4944818;28;20048;-79
2021/09/05 03:53:48;;;;;;;36.30;15.38;;;;;;;;;;4943331;28;20034;-80
2021/09/05 03:56:13;;;;;;;32.10;14.43;;;;;;;;;;4914374;29;20090;-80
2021/09/05 03:58:39;;;;;;;29.77;14.82;;;;;;;;;;4947501;28;20546;-80
2021/09/05 04:01:04;;;;;;;36.40;14.25;;;;;;;;;;4940422;28;20043;-80
2021/09/05 04:03:30;;;;;;;37.88;15.23;;;;;;;;;;4945444;28;20027;-80
2021/09/05 04:05:55;;;;;;;32.40;14.15;;;;;;;;;;4947691;28;20043;-80
2021/09/05 04:08:38;;;;;;;28.35;14.00;;;;;;;;;;4931658;29;20036;-80
2021/09/05 04:11:04;;;;;;;35.33;14.55;;;;;;;;;;4934224;28;20047;-79
2021/09/05 04:13:29;;;;;;;36.55;14.63;;;;;;;;;;4946842;28;20039;-80
2021/09/05 04:15:55;;;;;;;36.97;14.57;;;;;;;;;;4943522;28;20046;-80
2021/09/05 04:18:20;;;;;;;32.65;14.57;;;;;;;;;;4944685;28;20038;-80
2021/09/05 04:20:46;;;;;;;28.40;13.82;;;;;;;;;;4940380;28;20118;-80
2021/09/05 04:23:11;;;;;;;32.10;15.85;;;;;;;;;;4943077;28;20031;-79
2021/09/05 04:25:37;;;;;;;38.88;15.18;;;;;;;;;;4947312;28;20035;-80
2021/09/05 04:28:02;;;;;;;34.45;14.45;;;;;;;;;;4943259;28;20031;-80
2021/09/05 04:30:28;;;;;;;37.50;15.10;;;;;;;;;;4940677;28;20102;-79
2021/09/05 04:32:53;;;;;;;39.25;14.77;;;;;;;;;;4952600;28;20038;-79
2021/09/05 04:35:19;;;;;;;44.03;16.40;;;;;;;;;;4943279;28;20505;-80
2021/09/05 04:37:44;;;;;;;31.90;14.68;;;;;;;;;;4945918;28;20039;-80
2021/09/05 04:40:10;;;;;;;43.13;15.93;;;;;;;;;;4917072;28;20711;-80
2021/09/05 04:42:36;;;;;;;46.38;15.50;;;;;;;;;;4944897;28;20041;-80
2021/09/05 04:45:02;;;;;;;31.35;15.45;;;;;;;;;;4919912;28;20522;-80
2021/09/05 04:47:28;;;;;;;31.08;15.15;;;;;;;;;;4947712;28;20058;-79
2021/09/05 04:49:53;;;;;;;34.00;14.15;;;;;;;;;;4944867;28;20062;-80
2021/09/05 04:52:19;;;;;;;29.38;14.80;;;;;;;;;;4952543;28;20051;-79
2021/09/05 04:54:44;;;;;;;32.53;15.13;;;;;;;;;;4951520;28;20471;-80
2021/09/05 04:57:10;;;;;;;35.60;15.32;;;;;;;;;;4934126;28;20035;-80
2021/09/05 04:59:35;;;;;;;36.30;15.57;;;;;;;;;;4945163;28;20094;-79
2021/09/05 05:02:01;;;;;;;38.88;15.93;;;;;;;;;;4945661;28;20038;-79
2021/09/05 05:04:27;;;;;;;32.60;14.82;;;;;;;;;;4942920;28;20045;-79
2021/09/05 05:06:52;;;;;;;37.72;14.75;;;;;;;;;;4945564;28;20023;-78
2021/09/05 05:09:17;;;;;;;39.35;16.05;;;;;;;;;;4937844;28;20035;-79
2021/09/05 05:11:44;;;;;;;41.50;14.90;;;;;;;;;;4925194;29;20543;-80
2021/09/05 05:14:13;;;;;;;32.60;15.27;;;;;;;;;;4942104;28;20031;-79
2021/09/05 05:16:39;;;;;;;38.22;14.18;;;;;;;;;;4926794;28;20611;-79
2021/09/05 05:19:05;;;;;;;38.53;16.38;;;;;;;;;;4942614;28;20030;-80
2021/09/05 05:21:31;;;;;;;36.53;15.45;;;;;;;;;;4948857;28;20081;-80
2021/09/05 05:23:58;;;;;;;37.80;15.90;;;;;;;;;;4951888;28;20041;-79
2021/09/05 05:26:26;;;;;;;45.33;15.50;;;;;;;;;;4948037;28;20086;-79
2021/09/05 05:28:52;;;;;;;38.55;15.40;;;;;;;;;;4940726;28;20032;-79
2021/09/05 05:31:17;;;;;;;33.13;15.40;;;;;;;;;;4946514;28;20027;-80
2021/09/05 05:33:43;;;;;;;30.33;15.43;;;;;;;;;;4942990;28;20032;-79
2021/09/05 05:36:08;;;;;;;35.97;15.00;;;;;;;;;;4949264;28;20114;-80
2021/09/05 05:38:35;;;;;;;36.85;15.18;;;;;;;;;;4945785;28;20473;-80
2021/09/05 05:41:00;;;;;;;33.25;14.13;;;;;;;;;;4939834;28;20034;-80
2021/09/05 05:43:26;;;;;;;33.22;15.18;;;;;;;;;;4936477;28;20044;-80
2021/09/05 05:45:51;;;;;;;33.42;16.35;;;;;;;;;;4944668;28;20096;-80
2021/09/05 05:48:17;;;;;;;30.70;15.00;;;;;;;;;;4945081;28;20090;-80
2021/09/05 05:50:42;;;;;;;35.65;15.07;;;;;;;;;;4940182;28;20063;-80
2021/09/05 05:53:08;;;;;;;40.60;16.38;;;;;;;;;;4943432;28;20031;-78
2021/09/05 05:55:35;;;;;;;37.25;16.33;;;;;;;;;;4942150;28;20031;-80
2021/09/05 05:58:00;;;;;;;39.30;16.88;;;;;;;;;;4945572;28;20043;-80
2021/09/05 06:00:26;;;;;;;34.33;15.27;;;;;;;;;;4941712;28;20035;-80
2021/09/05 06:02:53;;;;;;;35.83;15.13;;;;;;;;;;4946365;28;20130;-80
2021/09/05 06:05:19;;;;;;;38.70;15.25;;;;;;;;;;4925660;29;20050;-80
2021/09/05 06:07:45;;;;;;;36.30;15.65;;;;;;;;;;4943599;28;20034;-80
2021/09/05 06:10:11;;;;;;;38.80;16.70;;;;;;;;;;4947160;28;20544;-80
2021/09/05 06:12:36;;;;;;;41.10;16.02;;;;;;;;;;4944715;28;20019;-79
2021/09/05 06:15:02;;;;;;;36.40;16.35;;;;;;;;;;4935870;28;20095;-80
2021/09/05 06:17:28;;;;;;;42.65;17.60;;;;;;;;;;4948485;28;20062;-78
2021/09/05 06:19:53;;;;;;;36.28;15.35;;;;;;;;;;4936571;28;20484;-80
2021/09/05 06:22:19;;;;;;;44.42;15.18;;;;;;;;;;4946492;28;20035;-79
2021/09/05 06:24:44;;;;;;;33.42;15.25;;;;;;;;;;4951952;28;20406;-80
2021/09/05 06:27:10;;;;;;;36.35;15.35;;;;;;;;;;4942991;28;20039;-80
2021/09/05 06:29:35;;;;;;;39.92;16.65;;;;;;;;;;4941347;28;20042;-80
2021/09/05 06:32:01;;;;;;;46.03;16.65;;;;;;;;;;4936090;28;20697;-80
2021/09/05 06:34:26;;;;;;;35.60;16.63;;;;;;;;;;4945882;28;20031;-80
2021/09/05 06:36:52;;;;;;;38.10;16.40;;;;;;;;;;4956359;28;20039;-80
2021/09/05 06:39:17;;;;;;;36.25;15.05;;;;;;;;;;4948974;28;20523;-81
2021/09/05 06:41:43;;;;;;;36.60;16.60;;;;;;;;;;4945337;28;20077;-80
2021/09/05 06:44:09;;;;;;;40.83;16.30;;;;;;;;;;4952886;28;20039;-80
2021/09/05 06:46:34;;;;;;;37.72;16.10;;;;;;;;;;4956528;28;20638;-79
2021/09/05 06:49:00;;;;;;;34.13;15.30;;;;;;;;;;4935306;28;20036;-79
2021/09/05 06:51:25;;;;;;;36.17;15.40;;;;;;;;;;4930534;29;20086;-78
2021/09/05 06:53:51;;;;;;;42.58;16.55;;;;;;;;;;4952498;28;20122;-80
2021/09/05 06:56:16;;;;;;;33.55;15.25;;;;;;;;;;4920783;29;20081;-80
2021/09/05 06:58:42;;;;;;;29.83;14.70;;;;;;;;;;4949223;28;20035;-79
2021/09/05 07:01:07;;;;;;;33.15;15.57;;;;;;;;;;4949635;28;20114;-79
2021/09/05 07:03:33;;;;;;;41.70;16.73;;;;;;;;;;4949610;28;20479;-80
2021/09/05 07:05:58;;;;;;;36.80;16.92;;;;;;;;;;4952816;28;20034;-80
2021/09/05 07:08:23;;;;;;;36.08;15.40;;;;;;;;;;4949263;28;20043;-80
2021/09/05 07:10:49;;;;;;;35.10;16.05;;;;;;;;;;4943588;28;20046;-80
2021/09/05 07:13:14;;;;;;;32.00;14.48;;;;;;;;;;4948334;28;20046;-80
2021/09/05 07:15:40;;;;;;;43.00;16.58;;;;;;;;;;4944671;28;20521;-80
2021/09/05 07:18:05;;;;;;;39.58;16.52;;;;;;;;;;4949160;28;20054;-80
2021/09/05 07:20:31;;;;;;;38.92;15.02;;;;;;;;;;4955273;28;20053;-79
2021/09/05 07:22:57;;;;;;;33.97;14.40;;;;;;;;;;4944416;28;20059;-81
2021/09/05 07:25:25;;;;;;;41.05;15.50;;;;;;;;;;4947566;28;20035;-80
2021/09/05 07:27:50;;;;;;;35.80;15.18;;;;;;;;;;4944940;28;20070;-80
2021/09/05 07:30:17;;;;;;;41.40;15.40;;;;;;;;;;4943981;28;20125;-80
2021/09/05 07:32:43;;;;;;;37.75;15.45;;;;;;;;;;4942175;28;20035;-79
2021/09/05 07:35:09;;;;;;;39.15;15.00;;;;;;;;;;4946235;28;20085;-80
2021/09/05 07:37:35;;;;;;;37.25;15.20;;;;;;;;;;4937522;28;20034;-80
2021/09/05 07:40:01;;;;;;;37.25;14.98;;;;;;;;;;4938060;28;20111;-80
2021/09/05 07:42:26;;;;;;;36.15;15.88;;;;;;;;;;4926510;29;20042;-80
2021/09/05 07:44:52;;;;;;;43.70;16.70;;;;;;;;;;4955170;28;20046;-81
2021/09/05 07:47:19;;;;;;;42.53;16.25;;;;;;;;;;4954647;28;20067;-80
2021/09/05 07:49:44;;;;;;;42.17;18.02;;;;;;;;;;4948570;28;20038;-79
2021/09/05 07:52:10;;;;;;;40.85;16.17;;;;;;;;;;4944605;28;20122;-80
2021/09/05 07:54:35;;;;;;;38.92;15.90;;;;;;;;;;4942478;28;20028;-80
2021/09/05 07:57:01;;;;;;;42.13;17.35;;;;;;;;;;4943443;28;20043;-80
2021/09/05 07:59:26;;;;;;;37.80;16.50;;;;;;;;;;4945018;28;20059;-80
2021/09/05 08:01:52;;;;;;;37.65;17.50;;;;;;;;;;4945319;28;20074;-81
2021/09/05 08:04:17;;;;;;;34.78;16.60;;;;;;;;;;4946811;28;20450;-80
2021/09/05 08:06:43;;;;;;;40.67;16.63;;;;;;;;;;4937457;28;20054;-80
2021/09/05 08:09:08;;;;;;;39.60;17.60;;;;;;;;;;4955512;28;20023;-80
2021/09/05 08:11:34;;;;;;;36.78;16.10;;;;;;;;;;4941719;28;20736;-80
2021/09/05 08:13:59;;;;;;;39.00;17.55;;;;;;;;;;4943504;28;20035;-80
2021/09/05 08:16:25;;;;;;;38.08;16.52;;;;;;;;;;4947637;28;20039;-80
2021/09/05 08:18:50;;;;;;;40.85;19.10;;;;;;;;;;4944901;28;20061;-80
2021/09/05 08:21:16;;;;;;;41.47;18.95;;;;;;;;;;4948141;28;20035;-80
2021/09/05 08:23:42;;;;;;;43.97;18.42;;;;;;;;;;4938599;28;20039;-80
2021/09/05 08:26:10;;;;;;;40.50;18.15;;;;;;;;;;4943507;28;20027;-81
2021/09/05 08:28:36;;;;;;;39.78;18.88;;;;;;;;;;4931483;29;20031;-80
2021/09/05 08:31:02;;;;;;;37.67;18.48;;;;;;;;;;4948993;28;20035;-81
2021/09/05 08:33:28;;;;;;;45.88;20.05;;;;;;;;;;4949019;28;20043;-80
2021/09/05 08:35:54;;;;;;;44.63;19.60;;;;;;;;;;4954300;28;20117;-80
2021/09/05 08:38:19;;;;;;;49.67;21.52;;;;;;;;;;4940637;28;20035;-80
2021/09/05 08:40:47;;;;;;;49.60;21.33;;;;;;;;;;4944391;28;20050;-80
2021/09/05 08:43:13;;;;;;;45.83;19.67;;;;;;;;;;4943321;28;20716;-80
2021/09/05 08:45:40;;;;;;;53.20;20.35;;;;;;;;;;4944651;28;20023;-80
2021/09/05 08:48:07;;;;;;;43.97;20.77;;;;;;;;;;4939570;28;20031;-80
2021/09/05 08:50:34;;;;;;;49.30;20.42;;;;;;;;;;4941059;28;20062;-80
2021/09/05 08:53:00;;;;;;;51.75;21.17;;;;;;;;;;4945198;28;20083;-80
2021/09/05 08:55:26;;;;;;;49.55;21.02;;;;;;;;;;4945317;28;20098;-80
2021/09/05 08:57:52;;;;;;;55.08;20.48;;;;;;;;;;4940911;28;20374;-81
2021/09/05 09:00:19;;;;;;;51.22;20.65;;;;;;;;;;4942596;28;20086;-80
2021/09/05 09:02:55;;;;;;;51.65;22.50;;;;;;;;;;4938775;28;20032;-80
2021/09/05 09:05:41;;;;;;;43.65;21.15;;;;;;;;;;4946674;28;20055;-80
2021/09/05 09:08:14;;;;;;;48.47;21.17;;;;;;;;;;4943376;28;20412;-80
2021/09/05 09:10:48;;;;;;;55.08;22.00;;;;;;;;;;4938355;28;20043;-80
2021/09/05 09:13:30;;;;;;;44.63;21.27;;;;;;;;;;4944249;28;20047;-80
2021/09/05 09:16:15;;;;;;;48.15;22.38;;;;;;;;;;4934746;28;20043;-80
2021/09/05 09:18:43;;;;;;;52.90;22.13;;;;;;;;;;4942565;28;20109;-80
2021/09/05 09:21:15;;;;;;;52.80;22.23;;;;;;;;;;4945110;28;20023;-80
2021/09/05 09:23:40;;;;;;;47.88;21.90;;;;;;;;;;4947357;28;20028;-80
2021/09/05 09:26:13;;;;;;;51.50;23.42;;;;;;;;;;4941847;28;20038;-80
2021/09/05 09:28:49;;;;;;;50.55;22.55;;;;;;;;;;4948983;28;20120;-80
2021/09/05 09:31:19;;;;;;;56.28;23.48;;;;;;;;;;4945429;28;20046;-80
2021/09/05 09:33:48;;;;;;;53.17;22.40;;;;;;;;;;4939739;28;20519;-80
2021/09/05 09:36:15;;;;;;;53.03;23.67;;;;;;;;;;4944206;28;20015;-80
2021/09/05 09:38:52;;;;;;;49.45;22.33;;;;;;;;;;4940075;28;20031;-80
2021/09/05 09:41:18;;;;;;;58.88;26.08;;;;;;;;;;4947988;28;20023;-80
2021/09/05 09:43:47;;;;;;;56.03;24.17;;;;;;;;;;4942047;28;20493;-80
2021/09/05 09:46:15;;;;;;;55.67;25.65;;;;;;;;;;4940592;28;20023;-80
2021/09/05 09:48:43;;;;;;;49.53;23.33;;;;;;;;;;4934354;28;20038;-80
2021/09/05 09:51:08;;;;;;;56.10;24.60;;;;;;;;;;4942622;28;20043;-81
2021/09/05 09:53:35;;;;;;;59.40;26.98;;;;;;;;;;4942411;28;20034;-79
2021/09/05 09:56:00;;;;;;;50.53;24.73;;;;;;;;;;4947443;28;20054;-80
2021/09/05 09:58:26;;;;;;;49.97;26.30;;;;;;;;;;4928814;29;20494;-79
2021/09/05 10:00:54;;;;;;;65.57;27.67;;;;;;;;;;4944772;28;20161;-80
2021/09/05 10:03:20;;;;;;;60.95;24.75;;;;;;;;;;4947730;28;20042;-80
2021/09/05 10:05:46;;;;;;;58.72;27.52;;;;;;;;;;4946056;28;20094;-80
2021/09/05 10:08:12;;;;;;;62.22;26.55;;;;;;;;;;4948563;28;20055;-81
2021/09/05 10:10:38;;;;;;;62.10;27.25;;;;;;;;;;4948005;28;20099;-81
2021/09/05 10:13:04;;;;;;;53.60;26.05;;;;;;;;;;4947578;28;20031;-80
2021/09/05 10:15:30;;;;;;;54.30;25.65;;;;;;;;;;4946653;28;20035;-81
2021/09/05 10:17:57;;;;;;;59.13;26.83;;;;;;;;;;4941552;28;20046;-80
2021/09/05 10:20:25;;;;;;;59.33;28.08;;;;;;;;;;4947017;28;20051;-80
2021/09/05 10:22:51;;;;;;;58.00;26.95;;;;;;;;;;4945690;28;20114;-78
2021/09/05 10:25:17;;;;;;;55.42;26.80;;;;;;;;;;4951896;28;20173;-81
2021/09/05 10:27:49;;;;;;;55.03;26.90;;;;;;;;;;4934154;28;20046;-80
2021/09/05 10:30:22;;;;;;;53.70;26.83;;;;;;;;;;4952273;28;20101;-80
2021/09/05 10:32:50;;;;;;;61.88;28.02;;;;;;;;;;4947804;28;20494;-80
2021/09/05 10:35:25;;;;;;;56.20;25.63;;;;;;;;;;4950582;28;20043;-80
2021/09/05 10:38:18;;;;;;;54.28;27.15;;;;;;;;;;4950181;28;20031;-80
2021/09/05 10:40:46;;;;;;;62.28;26.95;;;;;;;;;;4945682;28;20032;-80
2021/09/05 10:43:13;;;;;;;56.00;25.73;;;;;;;;;;4953032;28;20037;-80
2021/09/05 10:45:42;;;;;;;53.22;24.67;;;;;;;;;;4933936;29;20310;-80
2021/09/05 10:48:34;;;;;;;52.88;24.88;;;;;;;;;;4947383;28;20111;-79
2021/09/05 10:51:09;;;;;;;;;;;;;;;;;;4947761;28;20054;-80
2021/09/05 10:53:38;;;;;;;58.03;24.90;;;;;;;;;;4948396;28;19914;-80
2021/09/05 10:56:18;;;;;;;57.42;26.23;;;;;;;;;;4950749;28;20035;-81
2021/09/05 10:59:11;;;;;;;53.83;24.92;;;;;;;;;;4952516;28;20090;-80
2021/09/05 11:01:54;;;;;;;49.33;23.90;;;;;;;;;;4954461;28;20046;-80
2021/09/05 11:04:28;;;;;;;46.88;24.45;;;;;;;;;;4953877;28;20074;-81
2021/09/05 11:07:06;;;;;;;49.30;23.35;;;;;;;;;;4950522;28;20042;-80
2021/09/05 11:09:31;;;;;;;41.83;20.85;;;;;;;;;;4956971;28;20026;-81
2021/09/05 11:12:15;;;;;;;42.00;21.13;;;;;;;;;;4949188;28;20054;-80
2021/09/05 11:14:42;;;;;;;42.63;21.27;;;;;;;;;;4953546;28;20516;-81
2021/09/05 11:17:08;;;;;;;43.95;19.95;;;;;;;;;;4954877;28;20063;-80
2021/09/05 11:19:51;;;;;;;41.10;19.00;;;;;;;;;;4950257;28;20051;-80
2021/09/05 11:22:23;;;;;;;40.42;20.52;;;;;;;;;;4954381;28;20075;-80
2021/09/05 11:25:21;;;;;;;42.45;19.67;;;;;;;;;;4951957;28;20027;-80
2021/09/05 11:27:50;;;;;;;45.75;21.15;;;;;;;;;;4954842;28;20023;-80
2021/09/05 11:30:16;;;;;;;46.90;21.35;;;;;;;;;;4954021;28;20042;-80
2021/09/05 11:32:42;;;;;;;40.00;21.80;;;;;;;;;;4955448;28;20023;-81
2021/09/05 11:35:09;;;;;;;48.25;23.55;;;;;;;;;;4934838;28;20374;-81
2021/09/05 11:37:39;;;;;;;56.47;26.02;;;;;;;;;;4941858;28;20043;-80
2021/09/05 11:40:05;;;;;;;50.25;24.60;;;;;;;;;;4946890;28;20035;-80
2021/09/05 11:42:31;;;;;;;48.10;23.30;;;;;;;;;;4960144;28;20035;-81
2021/09/05 11:45:12;;;;;;;47.70;23.77;;;;;;;;;;4957813;28;20146;-81
2021/09/05 11:47:42;;;;;;;55.37;24.93;;;;;;;;;;4949034;28;20027;-80
2021/09/05 11:50:08;;;;;;;42.58;21.80;;;;;;;;;;4943590;28;20032;-79
2021/09/05 11:52:38;;;;;;;45.45;23.70;;;;;;;;;;4955944;28;20031;-81
2021/09/05 11:55:13;;;;;;;48.47;24.27;;;;;;;;;;4949512;28;20031;-81
2021/09/05 11:57:59;;;;;;;49.58;24.55;;;;;;;;;;4948222;28;20033;-81
2021/09/05 12:00:27;;;;;;;54.13;25.83;;;;;;;;;;4946159;28;20561;-80
2021/09/05 12:02:53;;;;;;;51.20;25.70;;;;;;;;;;4947370;28;20042;-80
2021/09/05 12:05:20;;;;;;;48.50;25.15;;;;;;;;;;4926748;28;20079;-81
2021/09/05 12:07:46;;;;;;;44.85;24.42;;;;;;;;;;4945114;28;20027;-80
2021/09/05 12:10:18;;;;;;;46.38;23.10;;;;;;;;;;4949077;28;20031;-80
2021/09/05 12:12:43;;;;;;;;;;;;;;;;;;4951711;28;20050;-80
2021/09/05 12:15:20;;;;;;;52.65;23.70;;;;;;;;;;4946581;28;20384;-81
2021/09/05 12:17:51;;;;;;;59.10;24.83;;;;;;;;;;4949825;28;20118;-81
2021/09/05 12:20:22;;;;;;;48.13;25.15;;;;;;;;;;4947296;28;20509;-80
2021/09/05 12:22:50;;;;;;;56.50;24.88;;;;;;;;;;4944847;28;20541;-80
2021/09/05 12:25:22;;;;;;;54.22;26.70;;;;;;;;;;4951952;28;20042;-80
2021/09/05 12:28:02;;;;;;;50.97;24.88;;;;;;;;;;4944088;28;20489;-78
2021/09/05 12:30:33;;;;;;;58.63;25.85;;;;;;;;;;4956270;28;20062;-79
2021/09/05 12:33:07;;;;;;;51.75;24.60;;;;;;;;;;4941323;28;20034;-79
2021/09/05 12:35:33;;;;;;;52.03;25.08;;;;;;;;;;4944538;28;20027;-80
2021/09/05 12:38:06;;;;;;;47.75;24.85;;;;;;;;;;4933835;28;20086;-81
2021/09/05 12:40:42;;;;;;;46.35;23.42;;;;;;;;;;4944347;28;20114;-79
2021/09/05 12:43:09;;;;;;;46.85;22.95;;;;;;;;;;4951212;28;20030;-79
2021/09/05 12:45:35;;;;;;;44.97;23.35;;;;;;;;;;4942804;28;20070;-79
2021/09/05 12:48:15;;;;;;;51.67;25.20;;;;;;;;;;4944469;28;20027;-79
2021/09/05 12:50:42;;;;;;;60.67;25.98;;;;;;;;;;4944491;28;20176;-80
2021/09/05 12:53:09;;;;;;;54.30;25.25;;;;;;;;;;4945304;28;20020;-81
2021/09/05 12:55:35;;;;;;;46.08;24.00;;;;;;;;;;4948302;28;20042;-80
2021/09/05 12:58:00;;;;;;;42.90;22.73;;;;;;;;;;4952454;28;20029;-81
2021/09/05 13:00:26;;;;;;;45.63;23.13;;;;;;;;;;4954955;28;20037;-81
2021/09/05 13:02:51;;;;;;;39.50;20.67;;;;;;;;;;4952812;28;20059;-81
2021/09/05 13:05:17;;;;;;;36.40;20.15;;;;;;;;;;4952974;28;20026;-81
2021/09/05 13:07:42;;;;;;;43.05;19.67;;;;;;;;;;4947173;28;20023;-80
2021/09/05 13:10:08;;;;;;;37.95;20.27;;;;;;;;;;4944149;28;20090;-80
2021/09/05 13:12:33;;;;;;;48.78;22.52;;;;;;;;;;4948212;28;20516;-80
2021/09/05 13:14:59;;;;;;;41.70;21.40;;;;;;;;;;4947490;28;20035;-80
2021/09/05 13:17:25;;;;;;;41.55;22.25;;;;;;;;;;4944530;28;20042;-81
2021/09/05 13:19:51;;;;;;;44.67;23.40;;;;;;;;;;4937909;29;20027;-78
2021/09/05 13:22:16;;;;;;;49.08;23.00;;;;;;;;;;4938459;28;20043;-80
2021/09/05 13:24:42;;;;;;;53.33;23.58;;;;;;;;;;4962739;28;20379;-79
2021/09/05 13:27:07;;;;;;;48.45;23.85;;;;;;;;;;4965758;28;20058;-79
2021/09/05 13:29:33;;;;;;;46.25;22.98;;;;;;;;;;4925578;29;20506;-79
2021/09/05 13:31:58;;;;;;;34.05;20.42;;;;;;;;;;4923449;28;20405;-80
2021/09/05 13:34:24;;;;;;;32.45;18.63;;;;;;;;;;4939544;28;20031;-81
2021/09/05 13:36:49;;;;;;;35.35;19.05;;;;;;;;;;4954369;28;20497;-81
2021/09/05 13:39:15;;;;;;;34.45;18.20;;;;;;;;;;4945441;28;20043;-81
2021/09/05 13:41:40;;;;;;;31.75;17.60;;;;;;;;;;4952769;28;20726;-81
2021/09/05 13:44:06;;;;;;;38.63;18.27;;;;;;;;;;4949167;28;20078;-81
2021/09/05 13:46:31;;;;;;;37.63;20.42;;;;;;;;;;4949413;28;20114;-81
2021/09/05 13:48:57;;;;;;;37.00;18.90;;;;;;;;;;4951251;28;20045;-81
2021/09/05 13:51:22;;;;;;;32.88;17.88;;;;;;;;;;4948305;28;20051;-80
2021/09/05 13:53:48;;;;;;;34.15;18.50;;;;;;;;;;4950526;28;20043;-80
2021/09/05 13:56:13;;;;;;;37.28;19.13;;;;;;;;;;4947040;28;20027;-80
2021/09/05 13:58:39;;;;;;;36.78;20.27;;;;;;;;;;4951649;28;20039;-81
2021/09/05 14:01:04;;;;;;;38.55;19.83;;;;;;;;;;4953749;28;20130;-80
2021/09/05 14:03:30;;;;;;;36.13;19.33;;;;;;;;;;4952846;28;20042;-80
2021/09/05 14:05:55;;;;;;;33.92;18.40;;;;;;;;;;4937854;28;20692;-80
2021/09/05 14:08:21;;;;;;;40.92;19.65;;;;;;;;;;4950466;28;20049;-80
2021/09/05 14:10:46;;;;;;;40.70;19.25;;;;;;;;;;4947574;28;20034;-80
2021/09/05 14:13:12;;;;;;;31.73;19.05;;;;;;;;;;4937916;28;20038;-81
2021/09/05 14:15:38;;;;;;;34.10;19.35;;;;;;;;;;4951851;28;20452;-81
2021/09/05 14:18:03;;;;;;;36.03;18.83;;;;;;;;;;4940868;28;20116;-80
2021/09/05 14:20:29;;;;;;;37.55;18.23;;;;;;;;;;4944074;28;20035;-81